Time;durP1;ratioP1;P1;durP2;ratioP2;P2;SDS_P1;SDS_P2;PMS_P1;PMS_P2;Temp;Humidity;BMP_temperature;BMP_pressure;BME280_temperature;BME280_humidity;BME280_pressure;Samples;Min_cycle;Max_cycle;Signal;HPM_P1;HPM_P2
2021/11/04 00:01:48;;;;;;;1012.13;937.72;;;;;;;21.54;56.20;101573.44;5053632;28;20040;-41
2021/11/04 00:04:14;;;;;;;1002.88;929.83;;;;;;;21.53;55.96;101569.09;5044225;28;20021;-41
2021/11/04 00:06:40;;;;;;;1017.10;942.17;;;;;;;21.55;56.17;101572.47;5050449;28;20093;-41
2021/11/04 00:09:07;;;;;;;1014.50;939.95;;;;;;;21.52;56.06;101570.06;5047170;28;20037;-41
2021/11/04 00:11:33;;;;;;;1002.97;929.75;;;;;;;21.54;55.84;101573.44;5053690;28;20021;-42
2021/11/04 00:13:59;;;;;;;1024.40;949.20;;;;;;;21.53;56.01;101581.59;5045200;28;20119;-41
2021/11/04 00:16:25;;;;;;;1029.28;953.13;;;;;;;21.53;56.15;101577.09;5051539;28;20031;-42
2021/11/04 00:18:52;;;;;;;1027.55;951.40;;;;;;;21.53;55.88;101571.75;5050783;28;20025;-42
2021/11/04 00:21:18;;;;;;;1027.00;951.80;;;;;;;21.52;55.86;101578.09;5048099;28;20025;-41
2021/11/04 00:23:44;;;;;;;1011.75;938.30;;;;;;;21.48;55.96;101570.47;5038954;28;20336;-41
2021/11/04 00:26:10;;;;;;;1034.82;959.35;;;;;;;21.53;55.95;101578.91;5038846;28;20039;-41
2021/11/04 00:28:37;;;;;;;1023.13;947.55;;;;;;;21.52;55.90;101578.09;5045699;28;20457;-42
2021/11/04 00:31:03;;;;;;;1016.72;941.17;;;;;;;21.54;55.95;101572.59;5055335;28;20095;-42
2021/11/04 00:33:29;;;;;;;1026.28;949.70;;;;;;;21.48;56.05;101566.00;5044875;28;20493;-43
2021/11/04 00:35:55;;;;;;;1024.03;948.88;;;;;;;21.52;56.28;101571.91;5046203;28;20109;-42
2021/11/04 00:38:21;;;;;;;1036.53;959.70;;;;;;;21.52;55.94;101574.56;5036865;28;20074;-42
2021/11/04 00:40:48;;;;;;;1025.28;950.03;;;;;;;21.51;56.24;101568.38;5047457;28;20033;-42
2021/11/04 00:43:14;;;;;;;1037.60;961.50;;;;;;;21.50;55.88;101566.69;5048384;28;20052;-42
2021/11/04 00:45:40;;;;;;;1037.45;960.10;;;;;;;21.49;55.85;101559.66;5036419;28;20455;-43
2021/11/04 00:48:06;;;;;;;1023.47;947.22;;;;;;;21.49;56.01;101559.66;5044492;28;20083;-42
2021/11/04 00:50:33;;;;;;;1014.05;940.17;;;;;;;21.50;56.11;101566.69;5041950;28;20057;-42
2021/11/04 00:52:59;;;;;;;1014.63;939.40;;;;;;;21.49;56.09;101564.16;5049647;28;20029;-42
2021/11/04 00:55:25;;;;;;;1028.07;952.90;;;;;;;21.48;56.04;101571.34;5046925;28;20383;-42
2021/11/04 00:57:51;;;;;;;980.97;911.72;;;;;;;21.41;55.87;101557.66;5040528;28;20029;-43
2021/11/04 01:00:19;;;;;;;1013.13;939.10;;;;;;;21.51;56.23;101568.38;5041237;28;20126;-42
2021/11/04 01:02:45;;;;;;;1009.90;936.30;;;;;;;21.48;55.92;101571.34;5039357;28;20021;-33
2021/11/04 01:05:11;;;;;;;1011.30;937.55;;;;;;;21.48;56.27;101565.13;5043774;28;20041;-33
2021/11/04 01:07:38;;;;;;;1029.05;952.72;;;;;;;21.50;55.82;101572.03;5040831;28;20025;-34
2021/11/04 01:10:05;;;;;;;1041.22;965.05;;;;;;;21.48;56.13;101568.66;5053827;28;20363;-33
2021/11/04 01:12:32;;;;;;;1014.97;941.03;;;;;;;21.48;56.06;101573.16;5046596;28;20083;-33
2021/11/04 01:14:58;;;;;;;1017.70;943.30;;;;;;;21.50;55.76;101573.88;5040245;28;20099;-33
2021/11/04 01:17:24;;;;;;;1017.33;942.15;;;;;;;21.51;55.74;101572.88;5045436;28;20048;-33
2021/11/04 01:19:50;;;;;;;1020.20;944.97;;;;;;;21.49;55.71;101574.84;5041145;28;20060;-33
2021/11/04 01:22:17;;;;;;;1036.10;959.17;;;;;;;21.49;55.76;101575.69;5042431;28;20029;-33
2021/11/04 01:24:43;;;;;;;1002.22;929.03;;;;;;;21.48;55.65;101583.84;5044185;28;20040;-33
2021/11/04 01:27:09;;;;;;;1018.88;942.78;;;;;;;21.47;55.85;101583.00;5039228;28;20371;-33
2021/11/04 01:29:35;;;;;;;1015.70;941.47;;;;;;;21.49;55.70;101582.88;5038864;28;20029;-33
2021/11/04 01:32:01;;;;;;;1001.03;927.03;;;;;;;21.48;55.75;101583.84;5049037;28;20082;-33
2021/11/04 01:34:28;;;;;;;1014.25;939.67;;;;;;;21.47;55.73;101592.84;5043464;28;20479;-33
2021/11/04 01:36:54;;;;;;;1012.58;939.47;;;;;;;21.47;55.88;101590.19;5041622;28;20063;-33
2021/11/04 01:39:20;;;;;;;1027.50;951.40;;;;;;;21.47;55.79;101584.84;5040847;28;20029;-33
2021/11/04 01:41:47;;;;;;;1010.08;936.03;;;;;;;21.46;55.72;101586.66;5043890;28;20474;-33
2021/11/04 01:44:13;;;;;;;1029.57;953.45;;;;;;;21.45;55.66;101593.84;5039965;28;20036;-34
2021/11/04 01:46:39;;;;;;;1036.47;960.22;;;;;;;21.39;55.78;101580.16;5038263;28;20455;-33
2021/11/04 01:49:06;;;;;;;1026.45;949.83;;;;;;;21.44;55.71;101594.81;5038149;28;20067;-33
2021/11/04 01:51:32;;;;;;;1030.45;953.83;;;;;;;21.45;55.77;101598.31;5040947;28;20029;-33
2021/11/04 01:53:58;;;;;;;1047.40;969.67;;;;;;;21.43;55.68;101605.63;5037245;28;20100;-33
2021/11/04 01:56:25;;;;;;;1032.90;955.25;;;;;;;21.42;55.68;101607.44;5045471;28;20040;-33
2021/11/04 01:58:51;;;;;;;1018.00;942.67;;;;;;;21.42;55.75;101606.59;5045685;28;20021;-32
2021/11/04 02:01:18;;;;;;;1033.10;955.85;;;;;;;21.42;55.30;101604.75;5053486;28;20036;-44
2021/11/04 02:03:52;;;;;;;1029.18;952.95;;;;;;;21.41;55.44;101610.28;5046281;28;20016;-44
2021/11/04 02:06:51;;;;;;;1007.83;934.80;;;;;;;21.46;55.71;101616.03;5035611;28;20090;-40
2021/11/04 02:09:40;;;;;;;997.10;924.50;;;;;;;21.45;55.37;101612.53;5040969;28;20044;-41
2021/11/04 02:12:12;;;;;;;1008.00;935.05;;;;;;;21.43;55.78;101617.16;5044718;28;20462;-41
2021/11/04 02:14:46;;;;;;;;;;;;;;;21.59;55.33;101616.63;5055300;28;20032;-41
2021/11/04 02:17:12;;;;;;;970.45;904.35;;;;;;;21.44;55.25;101613.50;5049118;28;20015;-41
2021/11/04 02:19:58;;;;;;;1026.32;951.22;;;;;;;21.43;55.32;101616.31;5051009;28;20026;-41
2021/11/04 02:22:27;;;;;;;1010.42;936.75;;;;;;;21.41;55.71;101620.97;5037997;28;20454;-41
2021/11/04 02:25:16;;;;;;;1005.30;932.55;;;;;;;21.45;55.29;101622.34;5044117;28;20036;-41
2021/11/04 02:27:49;;;;;;;1003.70;931.40;;;;;;;21.41;55.42;101628.97;5039748;28;20118;-39
2021/11/04 02:30:16;;;;;;;1003.95;932.55;;;;;;;21.41;55.11;101632.47;5053351;28;20031;-40
2021/11/04 02:32:43;;;;;;;1004.13;930.80;;;;;;;21.36;55.04;101620.53;5053499;28;20035;-40
2021/11/04 02:35:09;;;;;;;1002.45;928.95;;;;;;;21.40;55.23;101643.31;5053803;28;20028;-41
2021/11/04 02:37:35;;;;;;;1023.30;947.83;;;;;;;21.32;55.02;101632.47;5053443;28;20482;-40
2021/11/04 02:40:02;;;;;;;1000.63;927.97;;;;;;;21.40;55.41;101651.31;5049951;28;20472;-41
2021/11/04 02:42:28;;;;;;;1030.93;954.90;;;;;;;21.36;55.26;101653.44;5044957;28;20106;-41
2021/11/04 02:44:55;;;;;;;1035.82;959.00;;;;;;;21.36;55.40;101660.63;5048392;28;20328;-42
2021/11/04 02:47:21;;;;;;;1045.38;966.85;;;;;;;21.35;55.21;101659.75;5061452;28;20033;-40
2021/11/04 02:49:48;;;;;;;1033.38;956.75;;;;;;;21.27;55.46;101655.13;5052630;28;20505;-41
2021/11/04 02:52:16;;;;;;;1010.58;936.70;;;;;;;21.32;55.28;101665.41;5056759;28;20029;-41
2021/11/04 02:54:55;;;;;;;1023.47;949.10;;;;;;;21.35;54.88;101661.59;5042025;28;20401;-41
2021/11/04 02:57:21;;;;;;;997.80;925.30;;;;;;;21.33;54.67;101671.56;5038850;28;20025;-41
2021/11/04 02:59:48;;;;;;;1007.65;934.53;;;;;;;21.34;54.21;101667.94;5040022;28;20501;-41
2021/11/04 03:02:14;;;;;;;1027.80;953.28;;;;;;;21.31;54.30;101674.38;5036366;28;20036;-39
2021/11/04 03:04:41;;;;;;;1012.40;938.63;;;;;;;21.30;54.33;101672.72;5053128;28;20351;-41
2021/11/04 03:07:07;;;;;;;984.33;914.80;;;;;;;21.27;54.71;101673.81;5043043;28;20047;-41
2021/11/04 03:09:33;;;;;;;997.53;926.08;;;;;;;21.28;54.27;101674.66;5045296;28;20379;-40
2021/11/04 03:12:00;;;;;;;991.78;921.15;;;;;;;21.27;54.65;101683.66;5034982;28;20418;-40
2021/11/04 03:14:26;;;;;;;1004.80;932.35;;;;;;;21.20;54.40;101671.84;5036278;28;20055;-38
2021/11/04 03:16:54;;;;;;;979.88;910.85;;;;;;;21.24;54.72;101687.44;5058828;28;20106;-40
2021/11/04 03:19:21;;;;;;;998.90;927.60;;;;;;;21.24;54.54;101678.59;5037468;28;20446;-41
2021/11/04 03:21:49;;;;;;;992.40;922.00;;;;;;;21.23;53.99;101675.09;5054000;28;20059;-41
2021/11/04 03:24:20;;;;;;;998.78;927.50;;;;;;;21.23;53.74;101691.13;5038785;28;20450;-41
2021/11/04 03:26:54;;;;;;;989.90;919.42;;;;;;;21.17;53.64;101675.63;5057442;28;20107;-40
2021/11/04 03:29:20;;;;;;;996.00;924.65;;;;;;;21.21;53.68;101690.41;5051724;28;20021;-40
2021/11/04 03:31:47;;;;;;;959.83;893.78;;;;;;;21.21;53.71;101679.72;5042472;28;20039;-40
2021/11/04 03:34:13;;;;;;;974.22;905.65;;;;;;;21.20;54.03;101679.84;5055832;28;20035;-40
2021/11/04 03:36:40;;;;;;;1001.88;929.70;;;;;;;21.19;53.70;101676.31;5037297;28;20100;-41
2021/11/04 03:39:06;;;;;;;979.65;911.03;;;;;;;21.18;54.12;101671.97;5056927;28;20123;-39
2021/11/04 03:41:33;;;;;;;973.08;904.63;;;;;;;21.05;53.98;101658.88;5047194;28;20538;-42
2021/11/04 03:44:00;;;;;;;979.20;909.95;;;;;;;21.17;54.12;101672.13;5034111;28;20117;-40
2021/11/04 03:46:26;;;;;;;962.70;895.10;;;;;;;21.18;53.39;101673.81;5054940;28;20041;-40
2021/11/04 03:48:52;;;;;;;985.33;914.67;;;;;;;21.07;53.25;101653.41;5046511;28;20060;-40
2021/11/04 03:51:20;;;;;;;990.78;919.88;;;;;;;21.14;52.94;101678.59;5060779;28;20033;-40
2021/11/04 03:53:46;;;;;;;991.80;920.92;;;;;;;21.08;52.65;101649.75;5043115;28;20029;-40
2021/11/04 03:56:12;;;;;;;954.97;889.15;;;;;;;21.06;53.04;101647.22;5042154;28;20451;-41
2021/11/04 03:58:39;;;;;;;977.33;908.67;;;;;;;21.13;52.86;101670.72;5055284;28;20025;-40
2021/11/04 04:01:06;;;;;;;976.95;908.50;;;;;;;21.12;53.16;101675.19;5051248;28;20033;-41
2021/11/04 04:03:32;;;;;;;935.92;871.08;;;;;;;21.10;53.33;101670.97;5055297;28;20109;-39
2021/11/04 04:06:08;;;;;;;958.65;890.78;;;;;;;21.09;53.53;101670.16;5070160;28;20031;-41
2021/11/04 04:08:35;;;;;;;985.33;915.95;;;;;;;21.01;53.24;101662.78;5037409;28;20052;-38
2021/11/04 04:11:02;;;;;;;965.55;897.47;;;;;;;21.08;53.06;101665.78;5058333;28;20442;-40
2021/11/04 04:13:28;;;;;;;957.42;890.80;;;;;;;21.05;52.33;101658.03;5044708;28;20025;-38
2021/11/04 04:15:54;;;;;;;956.10;890.40;;;;;;;21.04;51.55;101662.53;5052741;28;20080;-41
2021/11/04 04:18:21;;;;;;;938.22;875.30;;;;;;;21.04;51.40;101651.84;5037722;28;20461;-40
2021/11/04 04:20:47;;;;;;;959.15;893.53;;;;;;;21.04;52.02;101659.03;5040576;28;20099;-41
2021/11/04 04:23:15;;;;;;;945.15;880.78;;;;;;;21.00;51.88;101655.78;5049676;28;20047;-40
2021/11/04 04:25:41;;;;;;;918.90;857.92;;;;;;;20.99;52.39;101643.41;5048991;28;20519;-41
2021/11/04 04:28:08;;;;;;;950.35;885.58;;;;;;;20.99;52.12;101645.25;5055087;28;20033;-41
2021/11/04 04:30:34;;;;;;;943.95;878.72;;;;;;;20.94;52.33;101634.13;5039623;28;20040;-41
2021/11/04 04:33:00;;;;;;;962.28;894.95;;;;;;;20.97;52.21;101644.53;5050038;28;20024;-38
2021/11/04 04:35:27;;;;;;;971.97;903.78;;;;;;;20.97;52.24;101628.50;5047503;28;20052;-41
2021/11/04 04:37:53;;;;;;;939.20;876.20;;;;;;;20.97;52.31;101631.19;5044050;28;20094;-41
2021/11/04 04:40:19;;;;;;;938.60;875.80;;;;;;;20.98;51.77;101633.72;5046696;28;20026;-41
2021/11/04 04:42:46;;;;;;;957.60;893.63;;;;;;;20.98;51.51;101630.19;5039224;28;20461;-40
2021/11/04 04:45:15;;;;;;;923.97;863.00;;;;;;;20.96;51.44;101635.66;5037981;28;20033;-41
2021/11/04 04:47:42;;;;;;;930.67;867.35;;;;;;;20.97;51.20;101628.50;5041275;28;20352;-38
2021/11/04 04:50:08;;;;;;;903.15;843.42;;;;;;;20.96;51.80;101627.66;5039616;28;20069;-39
2021/11/04 04:52:34;;;;;;;933.95;871.03;;;;;;;20.94;52.08;101634.13;5039145;28;20032;-41
2021/11/04 04:55:01;;;;;;;947.00;883.92;;;;;;;20.92;51.87;101642.25;5051011;28;20029;-41
2021/11/04 04:57:27;;;;;;;930.05;867.30;;;;;;;20.92;52.07;101642.25;5047015;28;20103;-40
2021/11/04 04:59:58;;;;;;;949.20;885.80;;;;;;;20.88;51.93;101656.88;5046526;28;20108;-39
2021/11/04 05:02:25;;;;;;;951.65;887.05;;;;;;;20.88;51.91;101657.72;5053139;28;20021;-38
2021/11/04 05:04:51;;;;;;;912.22;852.05;;;;;;;20.88;52.18;101662.22;5041922;28;20029;-40
2021/11/04 05:07:17;;;;;;;898.00;839.10;;;;;;;20.88;51.39;101671.06;5055741;28;20028;-39
2021/11/04 05:09:44;;;;;;;931.25;870.08;;;;;;;20.86;51.60;101664.19;5055964;28;20362;-41
2021/11/04 05:12:10;;;;;;;919.15;858.92;;;;;;;20.87;51.59;101655.19;5052820;28;20056;-39
2021/11/04 05:14:36;;;;;;;916.88;857.15;;;;;;;20.89;51.30;101659.41;5044610;28;20469;-40
2021/11/04 05:17:03;;;;;;;928.67;866.03;;;;;;;20.86;51.88;101667.69;5056094;28;20040;-41
2021/11/04 05:19:30;;;;;;;929.17;868.00;;;;;;;20.84;51.72;101685.66;5055094;28;20058;-41
2021/11/04 05:21:56;;;;;;;911.67;851.63;;;;;;;20.84;52.21;101685.66;5064302;28;20438;-41
2021/11/04 05:24:23;;;;;;;920.67;859.88;;;;;;;20.83;51.84;101688.47;5036200;28;20363;-40
2021/11/04 05:26:50;;;;;;;919.42;858.40;;;;;;;20.81;52.02;101691.28;5041504;28;20121;-38
2021/11/04 05:29:16;;;;;;;933.35;871.42;;;;;;;20.81;51.97;101688.59;5051146;28;20541;-39
2021/11/04 05:31:43;;;;;;;929.63;868.78;;;;;;;20.81;51.94;101683.25;5050913;28;20474;-39
2021/11/04 05:34:09;;;;;;;901.65;843.40;;;;;;;20.82;51.64;101679.63;5055427;28;20028;-40
2021/11/04 05:36:36;;;;;;;919.47;858.88;;;;;;;20.81;51.36;101679.75;5055963;28;20052;-40
2021/11/04 05:39:02;;;;;;;920.85;861.20;;;;;;;20.82;51.27;101668.94;5047754;28;20025;-41
2021/11/04 05:41:28;;;;;;;900.00;841.67;;;;;;;20.80;51.70;101675.38;5040012;28;20033;-40
2021/11/04 05:43:55;;;;;;;911.33;851.85;;;;;;;20.79;51.75;101679.88;5043551;28;20025;-41
2021/11/04 05:46:21;;;;;;;919.92;859.85;;;;;;;20.76;52.14;101685.50;5038933;28;20029;-40
2021/11/04 05:48:47;;;;;;;919.25;858.28;;;;;;;20.76;52.33;101700.69;5039418;28;20065;-41
2021/11/04 05:51:13;;;;;;;920.00;859.65;;;;;;;20.74;52.08;101703.47;5047441;28;20013;-42
2021/11/04 05:53:40;;;;;;;912.25;852.85;;;;;;;20.74;52.36;101711.47;5036258;28;20025;-39
2021/11/04 05:56:06;;;;;;;923.78;862.75;;;;;;;20.74;51.90;101713.31;5046270;28;20025;-40
2021/11/04 05:58:32;;;;;;;911.88;852.47;;;;;;;20.75;51.92;101704.31;5035777;28;20426;-39
2021/11/04 06:00:58;;;;;;;878.78;822.85;;;;;;;20.73;51.52;101715.13;5051265;28;20327;-37
2021/11/04 06:03:25;;;;;;;876.22;820.20;;;;;;;20.73;51.53;101709.78;5046802;28;20358;-41
2021/11/04 06:05:51;;;;;;;908.30;849.70;;;;;;;20.76;51.33;101712.19;5052249;28;20463;-40
2021/11/04 06:08:17;;;;;;;895.42;837.35;;;;;;;20.75;51.42;101704.31;5035473;28;20037;-39
2021/11/04 06:10:44;;;;;;;916.30;855.53;;;;;;;20.73;51.93;101695.59;5041419;28;20028;-39
2021/11/04 06:13:10;;;;;;;925.55;864.55;;;;;;;20.70;51.85;101702.91;5046213;28;20159;-40
2021/11/04 06:15:36;;;;;;;925.97;865.38;;;;;;;20.68;51.98;101698.69;5051290;28;20021;-40
2021/11/04 06:18:02;;;;;;;911.92;852.13;;;;;;;20.68;52.34;101706.69;5039569;28;20095;-40
2021/11/04 06:20:29;;;;;;;927.55;866.55;;;;;;;20.68;51.92;101698.69;5039968;28;20119;-38
2021/11/04 06:22:56;;;;;;;930.35;868.40;;;;;;;20.66;52.31;101709.50;5052258;28;20344;-40
2021/11/04 06:25:22;;;;;;;948.45;885.03;;;;;;;20.66;52.01;101705.97;5053200;28;20075;-40
2021/11/04 06:27:49;;;;;;;914.08;854.58;;;;;;;20.67;51.84;101699.66;5048214;28;20032;-41
2021/11/04 06:30:15;;;;;;;903.70;845.13;;;;;;;20.67;51.65;101708.50;5044793;28;20051;-39
2021/11/04 06:32:41;;;;;;;922.80;863.65;;;;;;;20.72;51.47;101707.28;5040194;28;20382;-41
2021/11/04 06:35:08;;;;;;;910.65;851.65;;;;;;;20.70;51.63;101710.06;5045018;28;20379;-40
2021/11/04 06:37:35;;;;;;;896.10;838.65;;;;;;;20.67;51.80;101699.66;5037517;28;20025;-41
2021/11/04 06:40:02;;;;;;;902.63;844.15;;;;;;;20.64;51.99;101699.91;5051840;28;20083;-40
2021/11/04 06:42:29;;;;;;;910.15;851.05;;;;;;;20.61;51.87;101686.81;5053415;28;20032;-40
2021/11/04 06:44:55;;;;;;;911.92;852.15;;;;;;;20.63;52.29;101695.56;5051066;28;20063;-39
2021/11/04 06:47:51;;;;;;;929.63;868.53;;;;;;;20.63;51.94;101693.75;5038206;28;20444;-39
2021/11/04 06:50:18;;;;;;;912.33;854.08;;;;;;;20.61;51.98;101687.69;5052125;28;20386;-41
2021/11/04 06:53:09;;;;;;;917.08;857.17;;;;;;;20.64;52.19;101691.91;5053530;28;20067;-40
2021/11/04 06:55:39;;;;;;;887.95;831.50;;;;;;;20.64;52.14;101676.75;5051607;28;20126;-40
2021/11/04 06:58:05;;;;;;;897.03;839.83;;;;;;;20.64;51.71;101683.91;5043998;28;20037;-41
2021/11/04 07:00:36;;;;;;;907.80;850.05;;;;;;;20.63;51.84;101682.22;5039035;28;20024;-40
2021/11/04 07:03:25;;;;;;;911.58;852.70;;;;;;;20.65;52.09;101686.44;5046863;28;20036;-40
2021/11/04 07:05:57;;;;;;;901.28;843.95;;;;;;;20.60;51.83;101680.63;5051166;28;20141;-36
2021/11/04 07:08:23;;;;;;;902.20;843.55;;;;;;;20.59;52.38;101684.28;5043007;28;20034;-41
2021/11/04 07:11:00;;;;;;;911.08;853.03;;;;;;;20.56;52.40;101681.03;5038644;28;20035;-41
2021/11/04 07:13:31;;;;;;;909.95;851.22;;;;;;;20.54;52.58;101678.50;5054632;28;20478;-38
2021/11/04 07:15:59;;;;;;;923.15;863.50;;;;;;;20.53;52.64;101671.47;5035557;28;20037;-40
2021/11/04 07:18:26;;;;;;;903.80;845.30;;;;;;;20.55;52.28;101674.00;5040783;28;20029;-42
2021/11/04 07:21:08;;;;;;;930.45;870.10;;;;;;;20.57;52.16;101677.38;5034371;28;20466;-42
2021/11/04 07:23:46;;;;;;;912.92;854.83;;;;;;;20.58;52.25;101674.56;5069260;28;20029;-41
2021/11/04 07:26:12;;;;;;;892.58;836.38;;;;;;;20.57;52.39;101670.22;5067783;28;20028;-41
2021/11/04 07:28:39;;;;;;;900.70;842.08;;;;;;;20.60;52.18;101669.13;5053430;28;20060;-39
2021/11/04 07:31:11;;;;;;;933.05;871.20;;;;;;;20.56;52.55;101675.72;5053295;28;20491;-42
2021/11/04 07:33:42;;;;;;;881.10;823.85;;;;;;;20.55;52.69;101676.66;5052995;28;20068;-39
2021/11/04 07:36:10;;;;;;;905.60;847.38;;;;;;;20.54;52.72;101672.31;5053782;28;20021;-41
2021/11/04 07:38:36;;;;;;;913.03;853.22;;;;;;;20.52;52.70;101677.78;5046961;28;20044;-40
2021/11/04 07:41:02;;;;;;;921.78;861.58;;;;;;;20.52;52.74;101675.97;5039854;28;20028;-41
2021/11/04 07:43:30;;;;;;;914.78;854.95;;;;;;;20.50;52.53;101669.06;5047294;28;20494;-40
2021/11/04 07:45:56;;;;;;;903.95;846.33;;;;;;;20.49;52.76;101672.72;5047145;28;20041;-41
2021/11/04 07:48:23;;;;;;;923.40;863.80;;;;;;;20.40;52.58;101657.50;5052137;28;20029;-39
2021/11/04 07:50:50;;;;;;;917.55;858.13;;;;;;;20.54;52.70;101680.31;5053880;28;20074;-40
2021/11/04 07:53:17;;;;;;;938.25;877.25;;;;;;;20.52;52.35;101675.97;5046357;28;20503;-40
2021/11/04 07:55:44;;;;;;;906.38;847.65;;;;;;;20.55;52.26;101672.16;5046901;28;20454;-41
2021/11/04 07:58:10;;;;;;;935.35;874.42;;;;;;;20.54;52.33;101680.31;5052668;28;20056;-40
2021/11/04 08:00:36;;;;;;;903.90;846.05;;;;;;;20.51;52.57;101670.75;5048824;28;20022;-40
2021/11/04 08:03:02;;;;;;;920.78;860.92;;;;;;;20.48;52.69;101673.69;5049777;28;20308;-41
2021/11/04 08:05:29;;;;;;;938.65;876.90;;;;;;;20.48;52.71;101677.22;5038047;28;20029;-41
2021/11/04 08:07:55;;;;;;;923.13;863.47;;;;;;;20.44;52.93;101678.44;5037504;28;20025;-41
2021/11/04 08:10:21;;;;;;;893.25;835.70;;;;;;;20.45;53.06;101682.81;5033868;28;20112;-40
2021/11/04 08:12:47;;;;;;;901.63;842.05;;;;;;;20.45;53.07;101676.66;5037847;28;20036;-39
2021/11/04 08:15:14;;;;;;;900.30;841.92;;;;;;;20.44;53.06;101681.09;5037336;28;20386;-40
2021/11/04 08:17:40;;;;;;;911.38;852.83;;;;;;;20.45;53.25;101677.47;5052354;28;20029;-38
2021/11/04 08:20:07;;;;;;;919.17;859.58;;;;;;;20.48;52.60;101679.88;5049003;28;20052;-41
2021/11/04 08:22:34;;;;;;;907.47;848.83;;;;;;;20.50;52.86;101679.72;5046959;28;20447;-40
2021/11/04 08:25:01;;;;;;;922.63;862.33;;;;;;;20.49;52.58;101673.56;5045775;28;20037;-43
2021/11/04 08:27:27;;;;;;;916.60;856.70;;;;;;;20.48;52.72;101682.56;5041861;28;20029;-43
2021/11/04 08:29:54;;;;;;;906.30;847.60;;;;;;;20.46;52.81;101689.81;5042064;28;20037;-41
2021/11/04 08:32:20;;;;;;;919.95;860.20;;;;;;;20.43;53.23;101690.13;5037401;28;20375;-38
2021/11/04 08:34:46;;;;;;;929.53;868.95;;;;;;;20.44;52.95;101682.94;5054850;28;20055;-41
2021/11/04 08:37:12;;;;;;;921.10;862.10;;;;;;;20.45;52.78;101682.81;5035897;28;20120;-38
2021/11/04 08:39:39;;;;;;;926.83;866.25;;;;;;;20.44;52.90;101686.44;5051822;28;20108;-39
2021/11/04 08:42:05;;;;;;;908.38;850.05;;;;;;;20.43;53.16;101681.25;5048659;28;20023;-40
2021/11/04 08:44:32;;;;;;;931.97;871.28;;;;;;;20.45;53.03;101681.97;5050456;28;20025;-40
2021/11/04 08:46:59;;;;;;;903.03;843.65;;;;;;;20.46;52.99;101687.16;5054776;28;20031;-40
2021/11/04 08:49:26;;;;;;;922.58;862.88;;;;;;;20.49;53.01;101678.06;5069517;28;20465;-41
2021/11/04 08:51:54;;;;;;;886.60;829.75;;;;;;;20.49;52.96;101676.22;5042173;28;20037;-41
2021/11/04 08:54:26;;;;;;;922.67;863.17;;;;;;;20.46;53.09;101683.66;5040379;28;20048;-42
2021/11/04 08:56:53;;;;;;;930.05;869.10;;;;;;;20.46;53.43;101678.31;5055788;28;20512;-41
2021/11/04 08:59:19;;;;;;;928.72;868.17;;;;;;;20.45;53.45;101692.66;5054172;28;20538;-39
2021/11/04 09:01:46;;;;;;;932.63;871.88;;;;;;;20.44;53.33;101686.44;5054958;28;20028;-40
2021/11/04 09:04:12;;;;;;;923.75;863.72;;;;;;;20.44;53.47;101683.78;5043318;28;20519;-40
2021/11/04 09:06:39;;;;;;;912.72;853.35;;;;;;;20.43;53.76;101684.78;5046916;28;20024;-40
2021/11/04 09:09:06;;;;;;;911.75;852.95;;;;;;;20.43;53.76;101679.44;5042468;28;20099;-41
2021/11/04 09:11:32;;;;;;;941.45;880.08;;;;;;;20.44;53.60;101677.59;5043477;28;20029;-40
2021/11/04 09:13:58;;;;;;;922.67;863.28;;;;;;;20.45;53.25;101688.16;5040122;28;20033;-38
2021/11/04 09:16:29;;;;;;;915.42;856.05;;;;;;;20.43;53.55;101682.09;5040967;28;20032;-40
2021/11/04 09:18:56;;;;;;;934.08;873.58;;;;;;;20.48;53.46;101695.91;5037858;28;20029;-41
2021/11/04 09:21:24;;;;;;;924.72;864.53;;;;;;;20.48;53.61;101695.91;5036499;28;20035;-41
2021/11/04 09:23:50;;;;;;;936.42;875.72;;;;;;;20.47;53.70;101696.84;5044765;28;20479;-40
2021/11/04 09:26:17;;;;;;;918.33;858.40;;;;;;;20.45;53.87;101706.81;5035825;28;20037;-40
2021/11/04 09:28:43;;;;;;;935.22;874.60;;;;;;;20.44;53.97;101704.28;5039267;28;20037;-39
2021/11/04 09:31:10;;;;;;;934.05;872.05;;;;;;;20.44;54.00;101707.78;5054158;28;20025;-39
2021/11/04 09:33:37;;;;;;;944.03;881.45;;;;;;;20.43;54.24;101714.13;5054336;28;20028;-40
2021/11/04 09:36:04;;;;;;;926.97;867.20;;;;;;;20.44;53.82;101717.63;5043075;28;20455;-41
2021/11/04 09:38:30;;;;;;;931.65;871.22;;;;;;;20.43;53.82;101726.59;5046128;28;20100;-41
2021/11/04 09:40:56;;;;;;;920.15;860.35;;;;;;;20.44;53.68;101726.47;5040281;28;20046;-41
2021/11/04 09:43:23;;;;;;;955.25;892.67;;;;;;;20.46;54.03;101718.34;5035389;28;20095;-41
2021/11/04 09:45:49;;;;;;;951.92;889.75;;;;;;;20.45;53.88;101720.16;5042639;28;20112;-40
2021/11/04 09:48:15;;;;;;;955.17;892.22;;;;;;;20.47;54.39;101728.03;5038030;28;20486;-39
2021/11/04 09:50:43;;;;;;;945.97;883.80;;;;;;;20.47;54.39;101733.38;5038659;28;20482;-38
2021/11/04 09:53:10;;;;;;;944.78;881.97;;;;;;;20.45;54.33;101728.16;5035823;28;20104;-41
2021/11/04 09:55:36;;;;;;;946.72;884.42;;;;;;;20.45;54.07;101722.84;5044040;28;20546;-41
2021/11/04 09:58:02;;;;;;;962.75;899.72;;;;;;;20.45;54.21;101720.16;5055214;28;20328;-41
2021/11/04 10:00:41;;;;;;;959.47;895.88;;;;;;;20.43;54.54;101716.78;5054693;28;20599;-39
2021/11/04 10:03:12;;;;;;;919.92;859.22;;;;;;;20.42;54.44;101728.44;5040732;28;20029;-39
2021/11/04 10:05:48;;;;;;;928.13;867.63;;;;;;;20.37;54.77;101727.97;5036207;28;20032;-40
2021/11/04 10:08:16;;;;;;;932.33;871.17;;;;;;;20.44;54.34;101736.31;5035418;28;20033;-40
2021/11/04 10:10:43;;;;;;;939.03;877.53;;;;;;;20.43;54.83;101737.25;5039853;28;20103;-38
2021/11/04 10:13:10;;;;;;;943.08;880.47;;;;;;;20.44;54.34;101729.13;5054322;28;20028;-41
2021/11/04 10:15:39;;;;;;;946.78;883.75;;;;;;;20.44;55.04;101739.81;5068154;28;20047;-41
2021/11/04 10:18:13;;;;;;;944.38;882.53;;;;;;;20.43;54.78;101734.59;5043580;28;20033;-42
2021/11/04 10:20:40;;;;;;;936.83;874.72;;;;;;;20.45;54.76;101736.19;5037198;28;20037;-40
2021/11/04 10:23:10;;;;;;;932.58;871.10;;;;;;;20.41;54.92;101732.09;5054527;28;20025;-38
2021/11/04 10:25:37;;;;;;;934.30;873.08;;;;;;;20.44;54.67;101742.47;5054987;28;20029;-39
2021/11/04 10:28:28;;;;;;;957.55;894.10;;;;;;;20.46;54.79;101742.34;5045028;28;20025;-41
2021/11/04 10:30:58;;;;;;;940.80;880.47;;;;;;;20.42;54.94;101739.09;5046436;28;20589;-41
2021/11/04 10:33:31;;;;;;;948.03;885.78;;;;;;;20.43;55.13;101745.28;5057989;28;20071;-40
2021/11/04 10:36:05;;;;;;;941.40;880.08;;;;;;;20.40;55.13;101749.06;5036045;28;20083;-39
2021/11/04 10:38:39;;;;;;;940.40;878.88;;;;;;;20.41;54.79;101753.44;5035950;28;20025;-41
2021/11/04 10:41:12;;;;;;;958.13;895.13;;;;;;;20.41;55.53;101749.91;5043239;28;20044;-38
2021/11/04 10:43:38;;;;;;;935.90;874.78;;;;;;;20.43;55.70;101759.47;5054210;28;20390;-41
2021/11/04 10:46:10;;;;;;;949.40;887.28;;;;;;;20.42;55.80;101760.44;5052774;28;20037;-40
2021/11/04 10:48:40;;;;;;;971.55;907.22;;;;;;;20.43;55.24;101756.81;5037955;28;20030;-39
2021/11/04 10:51:11;;;;;;;940.67;879.88;;;;;;;20.42;55.17;101751.59;5048232;28;20029;-41
2021/11/04 10:53:37;;;;;;;953.50;891.10;;;;;;;20.42;55.17;101759.59;5036243;28;20474;-41
2021/11/04 10:56:34;;;;;;;926.65;865.88;;;;;;;20.45;55.21;101759.34;5043784;28;20032;-42